Time;durP1;ratioP1;P1;durP2;ratioP2;P2;SDS_P1;SDS_P2;PMS_P1;PMS_P2;Temp;Humidity;BMP_temperature;BMP_pressure;BME280_temperature;BME280_humidity;BME280_pressure;Samples;Min_cycle;Max_cycle;Signal;HPM_P1;HPM_P2
2023/09/20 00:00:29;;;;;;;33.50;32.27;;;15.10;99.90;;;;;;5061304;28;20228;-63
2023/09/20 00:02:56;;;;;;;32.83;31.65;;;15.20;99.90;;;;;;5062591;28;20661;-63
2023/09/20 00:05:23;;;;;;;39.37;37.67;;;15.00;99.90;;;;;;5061622;28;20557;-64
2023/09/20 00:07:54;;;;;;;28.17;27.17;;;14.90;99.90;;;;;;5064496;28;20313;-64
2023/09/20 00:10:23;;;;;;;23.57;22.77;;;14.90;99.90;;;;;;5065187;28;20227;-64
2023/09/20 00:12:50;;;;;;;27.30;26.27;;;15.00;99.90;;;;;;5065622;28;20210;-63
2023/09/20 00:15:17;;;;;;;34.07;32.70;;;15.00;99.90;;;;;;5064111;28;20667;-65
2023/09/20 00:17:44;;;;;;;27.97;26.97;;;15.00;99.90;;;;;;5065117;28;20195;-63
2023/09/20 00:20:14;;;;;;;22.97;22.13;;;15.10;99.90;;;;;;5066320;28;20215;-65
2023/09/20 00:22:42;;;;;;;30.17;29.10;;;15.10;99.90;;;;;;5065357;28;20199;-65
2023/09/20 00:25:10;;;;;;;32.60;31.47;;;15.10;99.90;;;;;;5064341;28;20206;-65
2023/09/20 00:27:39;;;;;;;49.70;47.80;;;15.10;99.90;;;;;;5062974;28;20219;-65
2023/09/20 00:30:10;;;;;;;27.17;26.20;;;15.10;99.90;;;;;;5070398;28;20251;-64
2023/09/20 00:32:40;;;;;;;29.17;28.10;;;15.10;99.90;;;;;;5072747;28;20211;-64
2023/09/20 00:35:10;;;;;;;26.60;25.67;;;15.10;99.90;;;;;;5070745;28;20207;-63
2023/09/20 00:37:38;;;;;;;22.93;22.17;;;15.10;99.90;;;;;;5072744;28;20203;-64
2023/09/20 00:40:13;;;;;;;18.53;17.90;;;15.10;99.90;;;;;;5070314;28;20586;-63
2023/09/20 00:42:41;;;;;;;19.33;18.63;;;15.20;99.90;;;;;;5072133;28;20666;-63
2023/09/20 00:45:09;;;;;;;17.57;16.97;;;15.20;99.90;;;;;;5065347;28;20195;-63
2023/09/20 00:47:40;;;;;;;19.00;18.33;;;15.30;99.90;;;;;;5068981;28;20315;-63
2023/09/20 00:50:09;;;;;;;19.30;18.53;;;15.30;99.90;;;;;;5066985;28;20246;-64
2023/09/20 00:52:39;;;;;;;21.77;21.00;;;15.30;99.90;;;;;;5067282;28;20286;-64
2023/09/20 00:55:07;;;;;;;31.43;30.23;;;15.30;99.90;;;;;;5066421;28;20199;-64
2023/09/20 00:57:34;;;;;;;21.37;20.60;;;15.30;99.90;;;;;;5066482;28;20207;-67
2023/09/20 01:00:13;;;;;;;22.93;22.13;;;15.20;99.90;;;;;;5065162;28;20724;-64
2023/09/20 01:02:40;;;;;;;20.20;19.48;;;15.20;99.90;;;;;;5053416;28;20203;-63
2023/09/20 01:05:07;;;;;;;19.20;18.53;;;15.20;99.90;;;;;;5052721;28;20303;-63
2023/09/20 01:07:34;;;;;;;16.88;16.27;;;15.20;99.90;;;;;;5053978;28;20239;-64
2023/09/20 01:10:02;;;;;;;18.48;17.83;;;15.10;99.90;;;;;;5053990;28;20228;-65
2023/09/20 01:12:28;;;;;;;18.10;17.50;;;15.20;99.90;;;;;;5052717;28;20557;-66
2023/09/20 01:14:55;;;;;;;25.57;24.57;;;15.10;99.90;;;;;;5052526;28;20208;-63
2023/09/20 01:17:23;;;;;;;23.87;23.00;;;15.10;99.90;;;;;;5052938;28;20200;-65
2023/09/20 01:19:50;;;;;;;26.13;25.23;;;15.00;99.90;;;;;;5053375;28;20228;-64
2023/09/20 01:22:19;;;;;;;35.37;34.13;;;15.00;99.90;;;;;;5064286;28;20211;-65
2023/09/20 01:24:46;;;;;;;30.23;29.13;;;14.90;99.90;;;;;;5072567;28;20210;-64
2023/09/20 01:27:13;;;;;;;25.00;24.10;;;14.90;99.90;;;;;;5073430;28;20326;-64
2023/09/20 01:29:40;;;;;;;26.95;25.98;;;14.90;99.90;;;;;;5092047;28;20227;-65
2023/09/20 01:32:07;;;;;;;21.40;20.67;;;14.90;99.90;;;;;;5091065;28;20267;-63
2023/09/20 01:34:34;;;;;;;26.27;25.37;;;14.90;99.90;;;;;;5091194;28;20231;-65
2023/09/20 01:37:03;;;;;;;22.17;21.37;;;15.00;99.90;;;;;;5090237;28;20203;-64
2023/09/20 01:39:33;;;;;;;31.47;30.37;;;15.00;99.90;;;;;;5072711;28;20257;-64
2023/09/20 01:42:00;;;;;;;45.50;43.87;;;14.90;99.90;;;;;;5071642;28;20219;-64
2023/09/20 01:44:27;;;;;;;57.83;55.67;;;14.90;99.90;;;;;;5069685;28;20231;-65
2023/09/20 01:46:54;;;;;;;34.88;33.65;;;14.80;99.90;;;;;;5071453;28;20215;-64
2023/09/20 01:49:22;;;;;;;41.80;40.30;;;14.70;99.90;;;;;;5072961;28;20782;-64
2023/09/20 01:51:49;;;;;;;43.80;42.23;;;14.60;99.90;;;;;;5071891;28;20786;-63
2023/09/20 01:54:16;;;;;;;43.40;41.83;;;14.60;99.90;;;;;;5070415;28;20215;-63
2023/09/20 01:56:44;;;;;;;24.85;24.00;;;14.70;99.90;;;;;;5074986;28;20211;-64
2023/09/20 01:59:11;;;;;;;49.10;47.20;;;14.70;99.90;;;;;;5077089;28;20818;-64
2023/09/20 02:01:38;;;;;;;54.00;51.60;;;14.80;99.90;;;;;;5072272;28;20203;-64
2023/09/20 02:04:06;;;;;;;32.23;31.03;;;14.80;99.90;;;;;;5070038;28;20241;-63
2023/09/20 02:06:33;;;;;;;43.08;41.47;;;14.80;99.90;;;;;;5070242;28;20670;-63
2023/09/20 02:09:01;;;;;;;55.22;53.00;;;14.80;99.90;;;;;;5070011;28;20239;-64
2023/09/20 02:11:28;;;;;;;30.80;29.67;;;14.80;99.90;;;;;;5070657;28;20207;-65
2023/09/20 02:13:56;;;;;;;48.27;46.57;;;14.80;99.90;;;;;;5070114;28;20207;-63
2023/09/20 02:16:23;;;;;;;43.03;40.95;;;14.90;99.90;;;;;;5070372;28;20214;-64
2023/09/20 02:18:51;;;;;;;27.08;26.02;;;14.90;99.90;;;;;;5070305;28;20219;-63
2023/09/20 02:21:17;;;;;;;24.40;23.50;;;14.90;99.90;;;;;;5070215;28;20596;-65
2023/09/20 02:23:44;;;;;;;33.87;32.67;;;14.90;99.90;;;;;;5069787;28;20211;-64
2023/09/20 02:26:12;;;;;;;25.55;24.63;;;14.90;99.90;;;;;;5069314;28;20211;-63
2023/09/20 02:28:40;;;;;;;35.33;34.10;;;14.90;99.90;;;;;;5069945;28;20257;-63
2023/09/20 02:31:09;;;;;;;33.60;32.40;;;14.90;99.90;;;;;;5070098;28;20333;-65
2023/09/20 02:33:36;;;;;;;25.80;24.90;;;14.80;99.90;;;;;;5069982;28;20235;-65
2023/09/20 02:36:03;;;;;;;36.13;34.85;;;14.80;99.90;;;;;;5069772;28;20211;-65
2023/09/20 02:38:30;;;;;;;29.87;28.83;;;14.80;99.90;;;;;;5069578;28;20204;-65
2023/09/20 02:40:58;;;;;;;29.47;28.43;;;14.80;99.90;;;;;;5070112;28;20633;-64
2023/09/20 02:43:26;;;;;;;24.83;23.93;;;14.90;99.90;;;;;;5069915;28;20222;-64
2023/09/20 02:45:54;;;;;;;20.70;20.00;;;14.90;99.90;;;;;;5070384;28;20215;-64
2023/09/20 02:48:22;;;;;;;31.90;30.77;;;14.90;99.90;;;;;;5070314;28;20633;-64
2023/09/20 02:50:50;;;;;;;29.27;28.17;;;14.90;99.90;;;;;;5070375;28;20211;-64
2023/09/20 02:53:18;;;;;;;26.97;26.03;;;14.90;99.90;;;;;;5070474;28;20235;-64
2023/09/20 02:55:46;;;;;;;54.23;52.23;;;14.80;99.90;;;;;;5070474;28;20585;-64
2023/09/20 02:58:13;;;;;;;36.27;34.97;;;14.80;99.90;;;;;;5070087;28;20218;-63
2023/09/20 03:00:46;;;;;;;40.00;38.53;;;14.80;99.90;;;;;;5070289;28;20231;-64
2023/09/20 03:03:15;;;;;;;39.30;37.83;;;14.80;99.90;;;;;;5069989;28;20223;-63
2023/09/20 03:05:44;;;;;;;38.30;36.97;;;14.70;99.90;;;;;;5070151;28;20752;-64
2023/09/20 03:08:11;;;;;;;40.93;39.47;;;14.70;99.90;;;;;;5070094;28;20705;-63
2023/09/20 03:10:41;;;;;;;53.03;51.00;;;14.70;99.90;;;;;;5070539;28;20238;-63
2023/09/20 03:13:10;;;;;;;32.33;31.17;;;14.80;99.90;;;;;;5070714;28;20302;-64
2023/09/20 03:15:43;;;;;;;38.47;37.07;;;14.80;99.90;;;;;;5072375;28;20311;-63
2023/09/20 03:18:11;;;;;;;34.47;33.23;;;14.80;99.90;;;;;;5074193;28;20292;-63
2023/09/20 03:20:38;;;;;;;34.40;33.17;;;14.80;99.90;;;;;;5073865;28;20237;-65
2023/09/20 03:23:07;;;;;;;31.07;29.83;;;14.80;99.90;;;;;;5073989;28;20207;-63
2023/09/20 03:25:36;;;;;;;28.47;27.47;;;14.90;99.90;;;;;;5073895;28;20290;-64
2023/09/20 03:28:03;;;;;;;31.30;30.13;;;14.80;99.90;;;;;;5078043;28;20295;-65
2023/09/20 03:30:31;;;;;;;28.63;27.63;;;14.80;99.90;;;;;;5080965;28;20273;-64
2023/09/20 03:32:59;;;;;;;29.87;28.80;;;14.80;99.90;;;;;;5081514;28;20735;-63
2023/09/20 03:35:27;;;;;;;25.23;24.33;;;14.90;99.90;;;;;;5079610;28;20222;-64
2023/09/20 03:37:54;;;;;;;29.40;28.30;;;14.80;99.90;;;;;;5074327;28;20303;-64
2023/09/20 03:40:23;;;;;;;30.30;29.27;;;14.80;99.90;;;;;;5073759;28;20731;-64
2023/09/20 03:42:52;;;;;;;27.35;26.40;;;14.80;99.90;;;;;;5073438;28;20214;-64
2023/09/20 03:45:19;;;;;;;22.67;21.90;;;14.90;99.90;;;;;;5073572;28;20211;-63
2023/09/20 03:47:49;;;;;;;26.33;25.40;;;15.00;99.90;;;;;;5073721;28;20224;-64
2023/09/20 03:50:18;;;;;;;26.80;25.87;;;15.10;99.90;;;;;;5073700;28;20235;-64
2023/09/20 03:52:45;;;;;;;25.50;24.60;;;15.00;99.90;;;;;;5073442;28;20225;-64
2023/09/20 03:55:12;;;;;;;22.23;21.47;;;15.10;99.90;;;;;;5072841;28;20218;-64
2023/09/20 03:57:40;;;;;;;21.17;20.43;;;15.10;99.90;;;;;;5073173;28;20671;-65
2023/09/20 04:00:11;;;;;;;29.50;28.47;;;15.10;99.90;;;;;;5073248;28;20266;-65
2023/09/20 04:02:38;;;;;;;23.23;22.43;;;15.10;99.90;;;;;;5073502;28;20207;-62
2023/09/20 04:05:13;;;;;;;29.03;28.00;;;15.10;99.90;;;;;;5072974;28;20676;-64
2023/09/20 04:07:40;;;;;;;28.53;27.43;;;15.00;99.90;;;;;;5073097;28;20210;-64
2023/09/20 04:10:08;;;;;;;23.17;22.37;;;15.10;99.90;;;;;;5072934;28;20288;-64
2023/09/20 04:12:35;;;;;;;25.23;24.37;;;15.10;99.90;;;;;;5073271;28;20671;-64
2023/09/20 04:15:04;;;;;;;24.50;23.60;;;15.00;99.90;;;;;;5072959;28;20207;-64
2023/09/20 04:17:32;;;;;;;22.43;21.63;;;15.00;99.90;;;;;;5073215;28;20211;-64
2023/09/20 04:20:00;;;;;;;27.27;26.30;;;15.00;99.90;;;;;;5073089;28;20310;-63
2023/09/20 04:22:27;;;;;;;33.33;32.13;;;15.00;99.90;;;;;;5072789;28;20215;-64
2023/09/20 04:24:54;;;;;;;23.43;22.60;;;15.00;99.90;;;;;;5072742;28;20211;-65
2023/09/20 04:27:21;;;;;;;27.13;26.17;;;15.00;99.90;;;;;;5071906;28;20564;-64
2023/09/20 04:29:48;;;;;;;28.07;27.10;;;15.00;99.90;;;;;;5072750;28;20238;-63
2023/09/20 04:32:17;;;;;;;25.17;24.30;;;15.00;99.90;;;;;;5072859;28;20207;-60
2023/09/20 04:34:44;;;;;;;18.70;18.10;;;15.20;99.90;;;;;;5072404;28;20214;-60
2023/09/20 04:37:12;;;;;;;16.27;15.67;;;15.80;99.90;;;;;;5072627;28;20579;-61
2023/09/20 04:39:39;;;;;;;15.33;14.83;;;16.30;99.90;;;;;;5072921;28;20237;-62
2023/09/20 04:42:09;;;;;;;13.67;13.17;;;16.70;99.90;;;;;;5072496;28;20245;-59
2023/09/20 04:44:36;;;;;;;14.63;13.87;;;17.20;99.90;;;;;;5072196;28;20241;-61
2023/09/20 04:47:03;;;;;;;13.73;13.23;;;17.50;99.90;;;;;;5072527;28;20207;-61
2023/09/20 04:49:31;;;;;;;14.57;14.07;;;17.50;99.90;;;;;;5071985;28;20271;-62
2023/09/20 04:52:00;;;;;;;15.07;14.57;;;17.70;99.90;;;;;;5072543;28;20579;-62
2023/09/20 04:54:27;;;;;;;14.43;13.93;;;17.80;99.90;;;;;;5072076;28;20207;-61
2023/09/20 04:56:54;;;;;;;12.70;12.30;;;17.80;99.90;;;;;;5067657;28;20239;-61
2023/09/20 04:59:22;;;;;;;13.13;12.63;;;18.00;99.90;;;;;;5071249;28;20613;-62
2023/09/20 05:01:50;;;;;;;13.17;12.77;;;18.10;99.90;;;;;;5072419;28;20203;-61
2023/09/20 05:04:19;;;;;;;13.07;12.57;;;18.20;99.90;;;;;;5070556;28;20218;-62
2023/09/20 05:06:48;;;;;;;14.70;14.20;;;18.30;99.90;;;;;;5069198;28;20785;-63
2023/09/20 05:09:15;;;;;;;13.67;13.17;;;18.20;99.90;;;;;;5072391;28;20282;-65
2023/09/20 05:11:42;;;;;;;13.10;12.70;;;17.60;99.90;;;;;;5070999;28;20666;-63
2023/09/20 05:14:08;;;;;;;14.57;14.07;;;17.00;99.90;;;;;;5072429;28;20211;-64
2023/09/20 05:16:35;;;;;;;16.23;15.63;;;16.50;99.90;;;;;;5072690;28;20202;-64
2023/09/20 05:19:03;;;;;;;17.40;16.80;;;16.20;99.90;;;;;;5070142;28;20233;-64
2023/09/20 05:21:29;;;;;;;21.70;20.93;;;16.00;99.90;;;;;;5069888;28;20213;-63
2023/09/20 05:23:58;;;;;;;31.50;30.30;;;15.80;99.90;;;;;;5073608;28;20588;-64
2023/09/20 05:26:26;;;;;;;30.07;29.00;;;15.70;99.90;;;;;;5069678;28;20238;-64
2023/09/20 05:28:53;;;;;;;23.60;22.77;;;15.60;99.90;;;;;;5053619;28;20235;-64
2023/09/20 05:31:23;;;;;;;22.43;21.67;;;15.50;99.90;;;;;;5052270;28;20289;-63
2023/09/20 05:33:50;;;;;;;24.83;23.93;;;15.50;99.90;;;;;;5051386;28;20681;-64
2023/09/20 05:36:21;;;;;;;18.90;18.20;;;15.50;99.90;;;;;;5051385;28;20306;-63
2023/09/20 05:38:48;;;;;;;21.93;21.03;;;15.50;99.90;;;;;;5051461;28;20688;-64
2023/09/20 05:41:17;;;;;;;24.20;23.33;;;15.50;99.90;;;;;;5051278;28;20282;-64
2023/09/20 05:43:44;;;;;;;27.83;26.83;;;15.50;99.90;;;;;;5051186;28;20212;-63
2023/09/20 05:46:11;;;;;;;22.83;22.03;;;15.60;99.90;;;;;;5051378;28;20639;-64
2023/09/20 05:48:39;;;;;;;18.93;18.27;;;15.60;99.90;;;;;;5051657;28;20285;-63
2023/09/20 05:51:06;;;;;;;21.23;20.50;;;15.60;99.90;;;;;;5051585;28;20210;-63
2023/09/20 05:53:34;;;;;;;21.47;20.73;;;15.70;99.90;;;;;;5063240;28;20207;-63
2023/09/20 05:56:07;;;;;;;18.05;17.42;;;15.70;99.90;;;;;;5070994;28;20211;-64
2023/09/20 05:58:35;;;;;;;18.83;18.17;;;15.80;99.90;;;;;;5068130;28;20219;-64
2023/09/20 06:01:02;;;;;;;17.07;16.47;;;15.80;99.90;;;;;;5070676;28;20575;-62
2023/09/20 06:03:28;;;;;;;19.87;19.20;;;16.00;99.90;;;;;;5069309;28;20246;-64
2023/09/20 06:05:56;;;;;;;17.93;17.33;;;16.00;99.90;;;;;;5070833;28;20258;-64
2023/09/20 06:08:22;;;;;;;17.83;17.20;;;16.10;99.90;;;;;;5071046;28;20207;-63
2023/09/20 06:10:49;;;;;;;18.93;18.30;;;16.10;99.90;;;;;;5071094;28;20231;-64
2023/09/20 06:13:16;;;;;;;18.40;17.80;;;16.20;99.90;;;;;;5065890;28;20214;-64
2023/09/20 06:15:44;;;;;;;17.90;17.30;;;16.20;99.90;;;;;;5069228;28;20207;-64
2023/09/20 06:18:14;;;;;;;17.63;17.03;;;16.30;99.90;;;;;;5072141;28;20251;-63
2023/09/20 06:20:45;;;;;;;18.07;17.47;;;16.30;99.90;;;;;;5067698;28;20285;-63
2023/09/20 06:23:12;;;;;;;16.37;15.77;;;16.50;99.90;;;;;;5072437;28;20662;-63
2023/09/20 06:25:39;;;;;;;18.33;17.67;;;16.40;99.90;;;;;;5067071;28;20661;-64
2023/09/20 06:28:07;;;;;;;19.13;18.47;;;16.50;99.90;;;;;;5070024;28;20229;-64
2023/09/20 06:30:34;;;;;;;19.90;19.20;;;16.60;99.90;;;;;;5068546;28;20234;-64
2023/09/20 06:33:02;;;;;;;19.40;18.70;;;16.60;99.90;;;;;;5070198;28;20203;-65
2023/09/20 06:35:30;;;;;;;17.13;16.53;;;16.70;99.90;;;;;;5066359;28;20245;-65
2023/09/20 06:37:58;;;;;;;18.83;18.20;;;16.80;99.90;;;;;;5064063;28;20212;-65
2023/09/20 06:40:33;;;;;;;18.60;17.90;;;16.90;99.90;;;;;;5066997;28;20318;-64
2023/09/20 06:43:01;;;;;;;19.50;18.70;;;16.80;99.90;;;;;;5061164;28;20211;-65
2023/09/20 06:45:28;;;;;;;18.30;17.70;;;17.00;99.90;;;;;;5070746;28;20211;-64
2023/09/20 06:47:56;;;;;;;19.30;18.60;;;17.00;99.90;;;;;;5071086;28;20559;-64
2023/09/20 06:50:24;;;;;;;16.87;16.27;;;17.10;99.90;;;;;;5070532;28;20227;-63
2023/09/20 06:52:54;;;;;;;17.97;17.37;;;17.10;99.90;;;;;;5075029;28;20214;-62
2023/09/20 06:55:21;;;;;;;18.83;18.23;;;17.20;99.90;;;;;;5069240;28;20212;-65
2023/09/20 06:57:49;;;;;;;17.67;17.07;;;17.20;99.90;;;;;;5074681;28;20223;-65
2023/09/20 07:00:25;;;;;;;18.07;17.47;;;17.30;99.90;;;;;;5073518;28;20230;-64
2023/09/20 07:02:53;;;;;;;14.90;14.40;;;17.40;99.90;;;;;;5067775;28;20290;-63
2023/09/20 07:05:21;;;;;;;14.27;13.77;;;17.50;99.90;;;;;;5074781;28;20199;-64
2023/09/20 07:07:49;;;;;;;14.00;13.50;;;17.70;99.90;;;;;;5071810;28;20306;-65
2023/09/20 07:10:16;;;;;;;13.60;13.10;;;17.80;99.90;;;;;;5075655;28;20249;-64
2023/09/20 07:12:44;;;;;;;12.97;12.47;;;18.00;99.90;;;;;;5072838;28;20215;-64
2023/09/20 07:15:15;;;;;;;13.30;12.90;;;18.20;99.90;;;;;;5072096;28;20308;-64
2023/09/20 07:17:42;;;;;;;13.20;12.80;;;18.40;99.90;;;;;;5068252;28;20220;-63
2023/09/20 07:20:14;;;;;;;13.60;13.10;;;18.50;99.90;;;;;;5071256;28;20227;-64
2023/09/20 07:22:43;;;;;;;13.57;13.07;;;18.70;99.90;;;;;;5071381;28;20220;-64
2023/09/20 07:25:17;;;;;;;14.23;13.73;;;18.80;99.90;;;;;;5070241;28;20208;-62
2023/09/20 07:27:44;;;;;;;17.70;17.10;;;18.90;99.90;;;;;;5070200;28;20330;-64
2023/09/20 07:30:14;;;;;;;15.17;14.67;;;19.10;99.90;;;;;;5068807;28;20239;-64
2023/09/20 07:32:42;;;;;;;16.57;15.97;;;19.20;99.90;;;;;;5070411;28;20281;-63
2023/09/20 07:35:23;;;;;;;17.50;16.90;;;19.40;99.90;;;;;;5073740;28;20207;-64
2023/09/20 07:37:55;;;;;;;17.67;17.07;;;19.50;99.90;;;;;;5065929;28;20211;-65
2023/09/20 07:40:28;;;;;;;18.08;17.48;;;19.60;99.90;;;;;;5070886;28;20227;-63
2023/09/20 07:42:59;;;;;;;19.23;18.53;;;19.70;99.90;;;;;;5066251;28;20337;-64
2023/09/20 07:45:27;;;;;;;19.20;18.50;;;19.60;99.90;;;;;;5073109;28;20238;-64
2023/09/20 07:47:54;;;;;;;20.13;19.43;;;19.50;99.90;;;;;;5067030;28;20207;-65
2023/09/20 07:50:21;;;;;;;19.93;19.23;;;19.60;99.90;;;;;;5071097;28;20608;-64
2023/09/20 07:52:50;;;;;;;18.00;17.40;;;19.50;99.90;;;;;;5072373;28;20215;-63
2023/09/20 07:55:18;;;;;;;18.00;17.40;;;19.60;99.90;;;;;;5070824;28;20219;-64
2023/09/20 07:57:46;;;;;;;16.83;16.23;;;19.60;99.90;;;;;;5067080;28;20301;-63
2023/09/20 08:00:15;;;;;;;17.52;16.92;;;19.60;99.90;;;;;;5068687;28;20238;-65
2023/09/20 08:02:46;;;;;;;18.42;17.83;;;19.80;99.90;;;;;;5065069;28;20216;-64
2023/09/20 08:05:14;;;;;;;17.60;17.00;;;20.00;99.90;;;;;;5069056;28;20212;-64
2023/09/20 08:07:41;;;;;;;20.00;19.30;;;20.10;99.90;;;;;;5070156;28;20311;-64
2023/09/20 08:10:08;;;;;;;18.37;17.77;;;20.20;99.90;;;;;;5072030;28;20245;-64
2023/09/20 08:12:35;;;;;;;15.77;15.27;;;20.40;99.90;;;;;;5069340;28;20681;-64
2023/09/20 08:15:04;;;;;;;19.13;18.42;;;20.70;99.90;;;;;;5066620;28;20208;-64
2023/09/20 08:20:21;;;;;;;16.95;16.35;;;21.20;99.90;;;;;;5071103;28;20325;-64
2023/09/20 09:01:21;;;;;;;16.02;15.43;;;23.70;99.90;;;;;;5070993;28;20206;-64
2023/09/20 09:03:50;;;;;;;16.73;16.13;;;23.80;99.90;;;;;;5069040;28;20221;-64
2023/09/20 09:06:17;;;;;;;16.38;15.77;;;23.90;99.90;;;;;;5072343;28;20218;-65
2023/09/20 09:08:44;;;;;;;16.92;16.33;;;24.00;99.90;;;;;;5067098;28;20589;-65
2023/09/20 09:11:10;;;;;;;14.68;14.13;;;24.10;99.90;;;;;;5072315;28;20231;-64
2023/09/20 09:13:37;;;;;;;15.57;14.98;;;24.20;99.90;;;;;;5071876;28;20241;-65
2023/09/20 09:16:07;;;;;;;19.88;19.17;;;24.40;99.90;;;;;;5066404;28;20207;-64
2023/09/20 09:18:33;;;;;;;16.90;16.30;;;24.40;99.90;;;;;;5068302;28;20298;-64
2023/09/20 09:21:04;;;;;;;21.20;20.50;;;24.60;99.90;;;;;;5071320;28;20211;-64
2023/09/20 09:23:35;;;;;;;20.35;19.65;;;24.70;99.90;;;;;;5069304;28;20258;-64
2023/09/20 09:26:03;;;;;;;21.23;20.48;;;24.70;99.90;;;;;;5068238;28;20243;-64
2023/09/20 09:28:31;;;;;;;16.38;15.82;;;24.80;99.90;;;;;;5067530;28;20211;-64
2023/09/20 09:31:00;;;;;;;18.67;18.02;;;24.80;99.90;;;;;;5067723;28;20234;-64
2023/09/20 09:33:28;;;;;;;20.95;20.17;;;24.90;99.90;;;;;;5067847;28;20215;-64
2023/09/20 09:35:54;;;;;;;16.77;16.20;;;25.00;99.90;;;;;;5068347;28;20209;-64
2023/09/20 09:38:23;;;;;;;17.52;16.92;;;25.00;99.90;;;;;;5071036;28;20203;-65
2023/09/20 09:40:55;;;;;;;17.13;16.52;;;25.10;99.90;;;;;;5070576;28;20207;-65
2023/09/20 09:43:23;;;;;;;18.88;18.25;;;25.10;99.90;;;;;;5066223;28;20216;-64
2023/09/20 09:45:50;;;;;;;20.27;19.58;;;25.20;99.90;;;;;;5070438;28;20219;-65
2023/09/20 09:48:17;;;;;;;26.05;25.13;;;25.40;99.90;;;;;;5070434;28;20659;-64
2023/09/20 09:50:46;;;;;;;19.13;18.42;;;25.40;99.90;;;;;;5067925;28;20320;-66
2023/09/20 09:53:15;;;;;;;20.23;19.52;;;25.50;99.90;;;;;;5070170;28;20597;-65
2023/09/20 09:55:43;;;;;;;21.75;21.00;;;25.60;99.90;;;;;;5076038;28;20625;-64
2023/09/20 09:58:10;;;;;;;30.52;29.42;;;25.80;99.90;;;;;;5069458;28;20223;-66
2023/09/20 10:00:39;;;;;;;27.92;26.95;;;25.80;99.90;;;;;;5066577;28;20224;-64
2023/09/20 10:03:15;;;;;;;34.17;33.00;;;25.80;99.90;;;;;;5074240;28;20203;-63
2023/09/20 10:05:46;;;;;;;22.95;22.15;;;25.80;99.90;;;;;;5070824;28;20238;-64
2023/09/20 10:08:14;;;;;;;29.23;28.17;;;25.90;99.90;;;;;;5072253;28;20239;-64
2023/09/20 10:10:43;;;;;;;37.63;36.30;;;26.00;99.90;;;;;;5073404;28;20231;-64
2023/09/20 10:13:14;;;;;;;32.53;31.38;;;26.00;99.90;;;;;;5073641;28;20211;-64
2023/09/20 10:15:43;;;;;;;36.58;35.30;;;26.20;99.90;;;;;;5073579;28;20207;-64
2023/09/20 10:18:09;;;;;;;36.97;35.67;;;26.20;99.90;;;;;;5070995;28;20626;-65
2023/09/20 10:21:10;;;;;;;45.10;43.50;;;26.30;99.90;;;;;;5072720;28;20223;-64
2023/09/20 10:23:38;;;;;;;35.92;34.67;;;26.30;99.90;;;;;;5063362;28;20298;-62
2023/09/20 10:26:14;;;;;;;50.05;48.15;;;26.30;99.90;;;;;;5079319;28;20321;-64
2023/09/20 10:28:41;;;;;;;34.03;32.83;;;26.30;99.90;;;;;;5077344;28;20226;-64
2023/09/20 10:31:08;;;;;;;34.45;33.25;;;26.40;99.90;;;;;;5073168;28;20219;-64
2023/09/20 10:33:41;;;;;;;29.92;28.88;;;26.30;99.90;;;;;;5079311;28;20639;-64
2023/09/20 10:36:08;;;;;;;34.78;33.58;;;26.40;99.90;;;;;;5068642;28;20585;-63
2023/09/20 10:38:34;;;;;;;40.20;38.78;;;26.40;99.90;;;;;;5064080;28;20630;-63
2023/09/20 10:41:07;;;;;;;37.55;36.20;;;26.50;99.90;;;;;;5069961;28;20191;-62
2023/09/20 10:43:54;;;;;;;30.50;29.42;;;26.50;99.90;;;;;;5070553;28;20203;-62
2023/09/20 10:46:23;;;;;;;27.17;26.23;;;26.50;99.90;;;;;;5070511;28;20235;-63
2023/09/20 10:48:50;;;;;;;44.53;42.92;;;26.50;99.90;;;;;;5070670;28;20623;-62
2023/09/20 10:51:48;;;;;;;39.60;38.20;;;26.50;99.90;;;;;;5071277;28;20659;-64
2023/09/20 10:54:23;;;;;;;34.97;33.72;;;26.60;99.90;;;;;;5064269;28;20213;-62
2023/09/20 10:57:11;;;;;;;46.50;44.83;;;26.60;99.90;;;;;;5070304;28;20214;-64
2023/09/20 10:59:44;;;;;;;36.72;35.38;;;26.80;99.90;;;;;;5066842;28;20226;-64
2023/09/20 11:02:12;;;;;;;38.85;37.47;;;26.80;99.90;;;;;;5070609;28;20239;-64
2023/09/20 11:04:41;;;;;;;36.22;34.95;;;26.80;99.90;;;;;;5069948;28;20677;-64
2023/09/20 11:07:09;;;;;;;38.22;36.78;;;26.80;99.90;;;;;;5070040;28;20633;-63
2023/09/20 11:09:38;;;;;;;43.78;42.22;;;26.80;99.90;;;;;;5070178;28;20291;-64
2023/09/20 11:12:09;;;;;;;43.22;41.67;;;26.90;99.90;;;;;;5071341;28;20322;-63
2023/09/20 11:14:36;;;;;;;32.47;31.30;;;26.90;99.90;;;;;;5073825;28;20203;-64
2023/09/20 11:17:05;;;;;;;33.50;32.30;;;26.90;99.90;;;;;;5075082;28;20203;-64
2023/09/20 11:19:33;;;;;;;35.67;34.42;;;26.80;99.90;;;;;;5072466;28;20493;-64
2023/09/20 11:22:01;;;;;;;29.70;28.70;;;26.80;99.90;;;;;;5071124;28;20745;-64
2023/09/20 11:24:28;;;;;;;37.30;35.95;;;26.80;99.90;;;;;;5068925;28;20286;-64
2023/09/20 11:26:56;;;;;;;29.73;28.65;;;26.80;99.90;;;;;;5067390;28;20203;-63
2023/09/20 11:29:24;;;;;;;24.77;23.92;;;26.80;99.90;;;;;;5067760;28;20227;-63
2023/09/20 11:31:52;;;;;;;20.77;20.08;;;26.80;99.90;;;;;;5068763;28;20238;-63
2023/09/20 11:34:20;;;;;;;14.98;14.48;;;26.80;99.90;;;;;;5068276;28;20195;-63
2023/09/20 11:36:53;;;;;;;17.65;17.05;;;26.80;99.90;;;;;;5068940;28;20207;-62
2023/09/20 11:39:27;;;;;;;21.63;20.90;;;26.80;99.90;;;;;;5070625;28;20419;-64
2023/09/20 11:42:01;;;;;;;18.45;17.80;;;26.90;99.90;;;;;;5071809;28;20754;-64
2023/09/20 11:44:28;;;;;;;15.20;14.70;;;26.90;99.90;;;;;;5073065;28;20605;-63
2023/09/20 11:46:57;;;;;;;15.93;15.40;;;26.90;99.90;;;;;;5073228;28;20210;-63
2023/09/20 11:49:27;;;;;;;16.38;15.80;;;26.90;99.90;;;;;;5073091;28;20223;-63
2023/09/20 11:51:57;;;;;;;16.65;16.05;;;27.00;99.90;;;;;;5068359;28;20249;-63
2023/09/20 11:54:30;;;;;;;16.02;15.50;;;27.00;99.90;;;;;;5068967;28;20196;-62
2023/09/20 11:57:00;;;;;;;15.10;14.60;;;27.10;99.90;;;;;;5072221;28;20294;-64
2023/09/20 11:59:27;;;;;;;16.17;15.60;;;27.10;99.90;;;;;;5067478;28;20235;-64
2023/09/20 12:01:54;;;;;;;14.35;13.85;;;27.20;99.90;;;;;;5067450;28;20196;-64
2023/09/20 12:04:21;;;;;;;13.40;12.90;;;27.30;99.90;;;;;;5065966;28;20199;-63
2023/09/20 12:06:51;;;;;;;22.75;21.95;;;27.30;99.90;;;;;;5071975;28;20211;-64
2023/09/20 12:09:18;;;;;;;14.57;14.07;;;27.40;99.90;;;;;;5069977;28;20273;-64
2023/09/20 12:11:44;;;;;;;13.60;13.10;;;27.40;99.90;;;;;;5071199;28;20227;-64
2023/09/20 12:14:13;;;;;;;14.98;14.48;;;27.30;99.90;;;;;;5071597;28;20200;-64
2023/09/20 12:16:40;;;;;;;17.67;17.08;;;27.40;99.90;;;;;;5071570;28;20283;-64
2023/09/20 12:19:08;;;;;;;13.93;13.43;;;27.50;99.90;;;;;;5071761;28;20219;-63
2023/09/20 12:21:35;;;;;;;14.40;13.90;;;27.50;99.90;;;;;;5069420;28;20199;-63
2023/09/20 12:24:04;;;;;;;19.35;18.67;;;27.50;99.90;;;;;;5070798;28;20307;-63
2023/09/20 12:26:31;;;;;;;13.82;13.32;;;27.50;99.90;;;;;;5065683;28;20580;-63
2023/09/20 12:28:58;;;;;;;14.27;13.77;;;27.60;99.90;;;;;;5068829;28;20315;-63
2023/09/20 12:31:25;;;;;;;14.15;13.65;;;27.60;99.90;;;;;;5069884;28;20255;-63
2023/09/20 12:33:53;;;;;;;14.18;13.68;;;27.60;99.90;;;;;;5071381;28;20203;-63
2023/09/20 12:36:21;;;;;;;15.70;15.10;;;27.60;99.90;;;;;;5061132;28;20196;-63
2023/09/20 12:38:48;;;;;;;14.80;14.30;;;27.50;99.90;;;;;;5066157;28;20729;-63
2023/09/20 12:41:17;;;;;;;14.73;14.23;;;27.50;99.90;;;;;;5068519;28;20191;-63
2023/09/20 12:43:44;;;;;;;15.32;14.82;;;27.40;99.90;;;;;;5063355;28;20231;-63
2023/09/20 12:46:11;;;;;;;15.18;14.68;;;27.40;99.90;;;;;;5063431;28;20207;-63
2023/09/20 12:48:38;;;;;;;16.27;15.68;;;27.30;99.90;;;;;;5060818;28;20196;-63
2023/09/20 12:51:05;;;;;;;15.23;14.73;;;27.40;99.90;;;;;;5064896;28;20716;-63
2023/09/20 12:53:33;;;;;;;14.80;14.30;;;27.40;99.90;;;;;;5066343;28;20211;-63
2023/09/20 12:56:00;;;;;;;14.68;14.18;;;27.50;99.90;;;;;;5061960;28;20294;-63
2023/09/20 12:58:29;;;;;;;14.50;14.00;;;27.60;99.90;;;;;;5066224;28;20216;-63
2023/09/20 13:00:56;;;;;;;15.80;15.30;;;27.60;99.90;;;;;;5063305;28;20200;-63
2023/09/20 13:03:24;;;;;;;15.23;14.73;;;27.60;99.90;;;;;;5068157;28;20206;-63
2023/09/20 13:05:50;;;;;;;15.50;14.90;;;27.60;99.90;;;;;;5074161;28;20261;-63
2023/09/20 13:08:17;;;;;;;16.02;15.45;;;27.60;99.90;;;;;;5067882;28;20200;-63
2023/09/20 13:10:44;;;;;;;15.40;14.90;;;27.70;99.90;;;;;;5060657;28;20224;-63
2023/09/20 13:13:11;;;;;;;14.95;14.45;;;27.80;99.90;;;;;;5059388;28;20233;-64
2023/09/20 13:15:42;;;;;;;17.10;16.50;;;27.90;99.90;;;;;;5057270;28;20200;-62